Time;durP1;ratioP1;P1;durP2;ratioP2;P2;SDS_P1;SDS_P2;PMS_P1;PMS_P2;Temp;Humidity;BMP_temperature;BMP_pressure;BME280_temperature;BME280_humidity;BME280_pressure;Samples;Min_cycle;Max_cycle;Signal;HPM_P1;HPM_P2
2021/12/20 00:00:27;;;;;;;8.07;6.35;;;;;;;17.96;40.50;101167.25;5054721;28;20056;-76
2021/12/20 00:02:59;;;;;;;8.95;6.78;;;;;;;17.96;40.47;101167.25;5055753;28;20390;-75
2021/12/20 00:05:27;;;;;;;7.82;6.70;;;;;;;17.97;40.46;101176.97;5056296;28;20071;-75
2021/12/20 00:07:55;;;;;;;8.90;7.43;;;;;;;17.96;40.42;101168.09;5055667;28;20037;-76
2021/12/20 00:10:22;;;;;;;9.38;6.60;;;;;;;17.97;40.49;101160.91;5056331;28;20491;-76
2021/12/20 00:12:50;;;;;;;9.23;6.68;;;;;;;17.97;40.61;101160.91;5054251;28;20408;-76
2021/12/20 00:15:18;;;;;;;8.93;6.95;;;;;;;17.97;40.45;101155.56;5055701;28;20060;-76
2021/12/20 00:17:46;;;;;;;8.95;6.32;;;;;;;17.98;40.49;101151.91;5054073;28;20052;-76
2021/12/20 00:20:20;;;;;;;7.90;6.65;;;;;;;17.98;40.48;101157.25;5055746;28;20056;-76
2021/12/20 00:22:48;;;;;;;8.70;6.43;;;;;;;17.98;40.58;101151.91;5055065;28;20048;-76
2021/12/20 00:25:16;;;;;;;8.10;6.40;;;;;;;17.98;40.64;101150.06;5055596;28;20059;-76
2021/12/20 00:27:43;;;;;;;7.57;6.75;;;;;;;17.98;40.49;101151.91;5056036;28;20040;-76
2021/12/20 00:30:11;;;;;;;7.65;6.80;;;;;;;17.99;40.41;101150.94;5055560;28;20045;-76
2021/12/20 00:32:40;;;;;;;8.48;6.72;;;;;;;17.98;40.47;101147.38;5055317;28;20045;-76
2021/12/20 00:35:09;;;;;;;7.55;6.45;;;;;;;17.98;40.37;101147.38;5055423;28;20496;-76
2021/12/20 00:40:23;;;;;;;6.88;6.07;;;;;;;17.99;40.43;101134.88;5055383;28;20049;-76
2021/12/20 00:42:57;;;;;;;11.32;7.10;;;;;;;18.00;40.56;101141.94;5055134;28;20057;-76
2021/12/20 00:45:28;;;;;;;10.00;6.70;;;;;;;17.99;40.53;101141.09;5055236;28;20048;-76
2021/12/20 00:47:56;;;;;;;7.22;6.53;;;;;;;17.99;40.51;101138.41;5055557;28;20045;-76
2021/12/20 00:50:25;;;;;;;7.40;6.35;;;;;;;18.00;40.38;101134.75;5054544;28;20048;-75
2021/12/20 00:52:52;;;;;;;7.68;6.13;;;;;;;18.00;40.34;101133.91;5054766;28;20052;-76
2021/12/20 00:55:22;;;;;;;7.20;6.50;;;;;;;18.00;40.44;101125.88;5055099;28;20048;-76
2021/12/20 00:57:51;;;;;;;7.55;6.63;;;;;;;18.01;40.45;101120.38;5054792;28;20045;-76
2021/12/20 01:00:28;;;;;;;7.30;6.07;;;;;;;18.01;40.60;101122.22;5055131;28;20381;-76
2021/12/20 01:02:57;;;;;;;8.00;6.35;;;;;;;18.01;40.43;101130.25;5053676;28;20058;-76
2021/12/20 01:05:26;;;;;;;7.93;6.25;;;;;;;18.01;40.49;101123.06;5054632;28;20044;-76
2021/12/20 01:07:57;;;;;;;7.95;6.45;;;;;;;18.01;40.60;101125.75;5054608;28;20472;-76
2021/12/20 01:10:25;;;;;;;7.63;6.82;;;;;;;18.02;40.49;101123.91;5055100;28;20045;-75
2021/12/20 01:12:54;;;;;;;8.20;6.53;;;;;;;18.01;40.56;101114.16;5054220;28;20085;-76
2021/12/20 01:15:40;;;;;;;8.13;6.10;;;;;;;18.02;40.41;101110.50;5053504;28;20048;-76
2021/12/20 01:18:07;;;;;;;7.30;6.05;;;;;;;18.03;40.46;101101.53;5054735;28;20060;-76
2021/12/20 01:20:35;;;;;;;7.45;6.65;;;;;;;18.02;40.48;101100.66;5054168;28;20055;-76
2021/12/20 01:23:04;;;;;;;7.30;6.47;;;;;;;18.03;40.40;101098.84;5052797;28;20045;-76
2021/12/20 01:25:32;;;;;;;8.88;6.53;;;;;;;18.02;40.67;101097.97;5054688;28;20060;-76
2021/12/20 01:28:00;;;;;;;8.30;5.95;;;;;;;18.03;40.47;101096.19;5054010;28;20064;-76
2021/12/20 01:30:28;;;;;;;7.32;6.35;;;;;;;18.03;40.51;101102.38;5054338;28;20056;-76
2021/12/20 01:32:55;;;;;;;8.80;6.45;;;;;;;18.03;40.42;101102.38;5053661;28;20398;-75
2021/12/20 01:35:25;;;;;;;6.80;5.97;;;;;;;18.03;40.48;101105.06;5053846;28;20052;-75
2021/12/20 01:37:54;;;;;;;8.52;6.63;;;;;;;18.04;40.52;101100.56;5053670;28;20049;-75
2021/12/20 01:40:23;;;;;;;8.57;6.30;;;;;;;18.05;40.62;101099.56;5054177;28;20479;-75
2021/12/20 01:42:55;;;;;;;6.47;5.75;;;;;;;18.03;40.52;101085.47;5085660;28;20049;-75
2021/12/20 01:45:27;;;;;;;7.88;7.07;;;;;;;18.04;40.54;101087.16;5053916;28;20056;-76
2021/12/20 01:48:09;;;;;;;7.07;6.38;;;;;;;18.05;40.46;101083.50;5054206;28;20415;-75
2021/12/20 01:53:22;;;;;;;7.70;6.97;;;;;;;18.04;40.49;101079.13;5053924;28;20053;-76
2021/12/20 01:55:51;;;;;;;7.15;6.15;;;;;;;18.05;40.54;101078.13;5054068;28;20358;-76
2021/12/20 01:58:19;;;;;;;10.07;6.90;;;;;;;18.05;40.50;101072.78;5053275;28;20048;-75
2021/12/20 02:03:43;;;;;;;8.93;7.07;;;;;;;18.05;40.48;101067.44;5053150;28;20045;-76
2021/12/20 02:06:26;;;;;;;8.23;6.78;;;;;;;18.06;40.46;101062.91;5053956;28;20040;-75
2021/12/20 02:08:59;;;;;;;8.43;7.10;;;;;;;18.06;40.60;101046.84;5053852;28;20045;-76
2021/12/20 02:11:27;;;;;;;7.93;6.80;;;;;;;18.07;40.51;101041.38;5053752;28;20056;-76
2021/12/20 02:13:55;;;;;;;9.40;6.35;;;;;;;18.07;40.49;101043.19;5052744;28;20045;-76
2021/12/20 02:16:22;;;;;;;8.07;6.50;;;;;;;18.06;40.56;101028.94;5053556;28;20381;-76
2021/12/20 02:18:50;;;;;;;8.90;6.78;;;;;;;18.07;40.59;101024.44;5052960;28;20033;-76
2021/12/20 02:21:18;;;;;;;7.10;6.40;;;;;;;18.08;40.60;101016.28;5052989;28;20060;-76
2021/12/20 02:23:47;;;;;;;7.97;7.00;;;;;;;18.08;40.70;101020.81;5053483;28;20530;-76
2021/12/20 02:26:18;;;;;;;8.02;7.07;;;;;;;18.08;40.46;101027.00;5053507;28;20045;-76
2021/12/20 02:28:48;;;;;;;7.85;6.97;;;;;;;18.08;40.60;101008.25;5053528;28;20507;-76
2021/12/20 02:39:22;;;;;;;7.97;7.18;;;;;;;18.08;40.57;101002.91;5053351;28;20362;-76
2021/12/20 02:41:49;;;;;;;7.25;6.53;;;;;;;18.09;40.54;100999.22;5053066;28;20051;-76
2021/12/20 02:44:19;;;;;;;10.10;6.88;;;;;;;18.09;40.56;100993.03;5051902;28;20500;-76
2021/12/20 02:49:26;;;;;;;7.20;6.50;;;;;;;18.11;40.34;100993.75;5053623;28;20052;-76
2021/12/20 02:52:00;;;;;;;7.55;6.30;;;;;;;18.10;40.64;100987.53;5052227;28;20056;-76
2021/12/20 02:54:27;;;;;;;7.88;6.65;;;;;;;18.10;40.62;100989.38;5053270;28;20052;-76
2021/12/20 02:56:55;;;;;;;8.00;6.55;;;;;;;18.10;40.47;100992.03;5052708;28;20056;-76
2021/12/20 02:59:23;;;;;;;8.52;6.30;;;;;;;18.11;40.52;100977.66;5051472;28;20037;-76
2021/12/20 03:01:58;;;;;;;6.88;5.78;;;;;;;18.11;40.65;100977.66;5052806;28;20386;-76
2021/12/20 03:04:26;;;;;;;7.50;6.20;;;;;;;18.10;40.61;100971.47;5053368;28;20056;-76
2021/12/20 03:07:01;;;;;;;7.45;6.07;;;;;;;18.11;40.59;100959.81;5053131;28;20048;-76
2021/12/20 03:09:33;;;;;;;7.45;6.50;;;;;;;18.10;40.62;100955.38;5051948;28;20033;-75
2021/12/20 03:12:01;;;;;;;7.80;6.00;;;;;;;18.12;40.42;100957.97;5053267;28;20053;-76
2021/12/20 03:14:34;;;;;;;8.50;6.70;;;;;;;18.10;40.57;100955.38;5053505;28;20377;-75
2021/12/20 03:17:03;;;;;;;7.05;6.07;;;;;;;18.11;40.63;100958.91;5054553;28;20052;-76
2021/12/20 03:19:31;;;;;;;7.32;5.95;;;;;;;18.12;40.66;100958.81;5057050;28;20048;-76
2021/12/20 03:22:01;;;;;;;6.50;5.78;;;;;;;18.11;40.74;100962.47;5056546;28;20045;-76
2021/12/20 03:24:29;;;;;;;6.00;5.38;;;;;;;18.12;40.44;100955.28;5056415;28;20049;-75
2021/12/20 03:26:56;;;;;;;6.85;6.13;;;;;;;18.12;40.72;100957.97;5056517;28;20049;-76
2021/12/20 03:29:24;;;;;;;6.95;6.25;;;;;;;18.11;40.65;100959.81;5056325;28;20052;-75
2021/12/20 03:31:52;;;;;;;6.93;6.18;;;;;;;18.12;40.70;100956.13;5057024;28;20049;-76
2021/12/20 03:34:20;;;;;;;7.65;5.75;;;;;;;18.13;40.74;100962.34;5056049;28;20041;-76
2021/12/20 03:36:47;;;;;;;6.53;5.82;;;;;;;18.12;40.69;100960.66;5056586;28;20067;-76
2021/12/20 03:39:15;;;;;;;7.32;6.05;;;;;;;18.12;40.67;100957.97;5055954;28;20504;-76
2021/12/20 03:41:42;;;;;;;7.32;6.50;;;;;;;18.13;40.50;100960.50;5056732;28;20041;-76
2021/12/20 03:44:11;;;;;;;6.82;6.15;;;;;;;18.12;40.61;100961.50;5055854;28;20061;-76
2021/12/20 03:46:38;;;;;;;6.80;6.10;;;;;;;18.13;40.62;100946.28;5056303;28;20045;-76
2021/12/20 03:49:06;;;;;;;8.32;6.60;;;;;;;18.13;40.61;100948.94;5055763;28;20037;-76
2021/12/20 03:51:35;;;;;;;7.25;5.82;;;;;;;18.12;40.49;100940.06;5056548;28;20056;-76
2021/12/20 03:54:04;;;;;;;8.38;6.55;;;;;;;18.13;40.43;100946.28;5054682;28;20045;-75
2021/12/20 03:56:32;;;;;;;8.93;6.65;;;;;;;18.14;40.52;100934.56;5056469;28;20044;-76
2021/12/20 03:58:59;;;;;;;9.10;7.30;;;;;;;18.13;40.44;100933.72;5054099;28;20041;-76
2021/12/20 04:01:28;;;;;;;6.82;6.13;;;;;;;18.13;40.52;100933.72;5054934;28;20044;-76
2021/12/20 04:03:57;;;;;;;9.07;6.93;;;;;;;18.14;40.59;100931.88;5054407;28;20041;-76
2021/12/20 04:06:25;;;;;;;7.60;6.53;;;;;;;18.14;40.37;100937.25;5055463;28;20492;-76
2021/12/20 04:08:52;;;;;;;7.88;6.20;;;;;;;18.14;40.31;100931.88;5054420;28;20128;-76
2021/12/20 04:11:20;;;;;;;8.00;6.18;;;;;;;18.13;40.28;100925.69;5055446;28;20045;-76
2021/12/20 04:13:48;;;;;;;8.73;6.38;;;;;;;18.14;40.33;100926.53;5055292;28;20082;-76
2021/12/20 04:16:15;;;;;;;7.53;6.40;;;;;;;18.13;40.35;100933.72;5053927;28;20053;-76
2021/12/20 04:18:43;;;;;;;7.30;6.38;;;;;;;18.14;40.46;100926.53;5055949;28;20358;-76
2021/12/20 04:21:11;;;;;;;7.32;6.10;;;;;;;18.14;40.40;100929.22;5055989;28;20068;-76
2021/12/20 04:23:38;;;;;;;8.00;6.25;;;;;;;18.14;40.33;100926.53;5055149;28;20041;-76
2021/12/20 04:26:06;;;;;;;8.35;6.85;;;;;;;18.14;40.21;100919.34;5055408;28;20045;-76
2021/12/20 04:28:34;;;;;;;8.75;6.75;;;;;;;18.14;40.38;100919.34;5055413;28;20044;-76
2021/12/20 04:31:02;;;;;;;7.05;6.30;;;;;;;18.14;40.31;100918.50;5054177;28;20053;-76
2021/12/20 04:33:29;;;;;;;7.47;6.45;;;;;;;18.14;40.24;100921.16;5055160;28;20053;-76
2021/12/20 04:35:56;;;;;;;10.10;6.40;;;;;;;18.15;40.40;100918.38;5054969;28;20056;-75
2021/12/20 04:38:27;;;;;;;12.32;7.05;;;;;;;18.15;40.49;100921.06;5054779;28;20045;-76
2021/12/20 04:40:54;;;;;;;9.13;6.70;;;;;;;18.15;40.49;100912.16;5055084;28;20045;-76
2021/12/20 04:43:22;;;;;;;7.85;6.72;;;;;;;18.15;40.51;100907.69;5054749;28;20056;-76
2021/12/20 04:45:49;;;;;;;8.27;7.03;;;;;;;18.14;40.26;100903.25;5054801;28;20045;-76
2021/12/20 04:48:18;;;;;;;8.35;7.45;;;;;;;18.15;40.40;100910.34;5054734;28;20053;-75
2021/12/20 04:50:45;;;;;;;7.20;6.10;;;;;;;18.15;40.10;100906.78;5055441;28;20045;-76
2021/12/20 04:53:12;;;;;;;8.10;6.38;;;;;;;18.14;40.27;100905.94;5053501;28;20041;-75
2021/12/20 04:55:40;;;;;;;7.85;7.03;;;;;;;18.15;40.28;100915.72;5055320;28;20049;-76
2021/12/20 04:58:08;;;;;;;7.18;6.10;;;;;;;18.16;40.22;100914.72;5053746;28;20053;-76
2021/12/20 05:00:36;;;;;;;7.85;6.10;;;;;;;18.15;40.16;100913.03;5055521;28;20045;-76
2021/12/20 05:03:05;;;;;;;8.15;6.32;;;;;;;18.16;40.17;100917.41;5054442;28;20112;-75
2021/12/20 05:05:32;;;;;;;6.75;5.93;;;;;;;18.16;40.13;100921.91;5054583;28;20041;-76
2021/12/20 05:08:01;;;;;;;8.45;6.15;;;;;;;18.16;40.20;100911.19;5054292;28;20405;-76
2021/12/20 05:10:32;;;;;;;7.43;5.70;;;;;;;18.16;40.11;100914.72;5053073;28;20045;-76
2021/12/20 05:13:10;;;;;;;7.00;6.13;;;;;;;18.16;40.04;100908.53;5054189;28;20053;-76
2021/12/20 05:15:38;;;;;;;9.07;6.15;;;;;;;18.16;40.06;100905.84;5052827;28;20052;-76
2021/12/20 05:18:08;;;;;;;6.78;6.07;;;;;;;18.15;40.03;100907.69;5054191;28;20054;-76
2021/12/20 05:20:36;;;;;;;6.43;5.78;;;;;;;18.16;40.08;100912.06;5055331;28;20071;-75
2021/12/20 05:23:04;;;;;;;5.90;5.25;;;;;;;18.17;39.89;100899.50;5054014;28;20051;-76
2021/12/20 05:25:32;;;;;;;6.30;5.70;;;;;;;18.16;39.89;100901.34;5053407;28;20389;-76
2021/12/20 05:28:00;;;;;;;7.50;6.07;;;;;;;18.16;40.01;100887.94;5054547;28;20480;-76
2021/12/20 05:30:27;;;;;;;7.78;6.05;;;;;;;18.15;39.79;100886.25;5053363;28;20048;-76
2021/12/20 05:32:55;;;;;;;7.13;6.43;;;;;;;18.16;39.99;100887.94;5053781;28;20064;-76
2021/12/20 05:35:23;;;;;;;6.22;5.63;;;;;;;18.16;39.71;100887.94;5052745;28;20055;-76
2021/12/20 05:37:51;;;;;;;7.22;6.22;;;;;;;18.16;39.56;100877.22;5053733;28;20481;-76
2021/12/20 05:40:20;;;;;;;8.00;5.93;;;;;;;18.16;39.65;100874.53;5053546;28;20045;-76
2021/12/20 05:42:48;;;;;;;6.68;5.72;;;;;;;18.16;39.72;100879.91;5053559;28;20053;-76
2021/12/20 05:45:17;;;;;;;6.47;5.70;;;;;;;18.16;39.71;100879.91;5054515;28;20048;-75
2021/12/20 05:47:45;;;;;;;7.13;5.90;;;;;;;18.17;39.94;100878.06;5053575;28;20045;-75
2021/12/20 05:50:17;;;;;;;9.60;5.70;;;;;;;18.17;39.82;100886.09;5054176;28;20048;-76
2021/12/20 05:52:46;;;;;;;6.00;5.37;;;;;;;18.18;39.74;100901.19;5054368;28;20048;-76
2021/12/20 05:55:14;;;;;;;8.35;5.78;;;;;;;18.18;39.91;100896.69;5053535;28;20041;-76
2021/12/20 05:57:42;;;;;;;6.10;5.50;;;;;;;18.18;39.88;100904.72;5052618;28;20492;-76
2021/12/20 06:00:14;;;;;;;8.25;5.10;;;;;;;18.19;39.98;100900.22;5053515;28;20155;-76
2021/12/20 06:02:46;;;;;;;9.45;5.43;;;;;;;18.18;39.89;100901.19;5053658;28;20048;-76
2021/12/20 06:05:15;;;;;;;8.05;5.93;;;;;;;18.18;39.92;100896.69;5053809;28;20041;-76
2021/12/20 06:07:43;;;;;;;5.90;5.30;;;;;;;18.19;39.87;100897.53;5053466;28;20041;-76
2021/12/20 06:10:13;;;;;;;7.95;5.80;;;;;;;18.19;39.79;100898.41;5053072;28;20067;-76
2021/12/20 06:12:41;;;;;;;5.70;5.10;;;;;;;18.19;39.80;100903.78;5054046;28;20045;-76
2021/12/20 06:15:10;;;;;;;6.72;5.95;;;;;;;18.20;39.62;100907.31;5053108;28;20420;-77
2021/12/20 06:17:37;;;;;;;7.72;5.82;;;;;;;18.19;39.61;100906.44;5052018;28;20437;-76
2021/12/20 06:20:08;;;;;;;7.18;5.55;;;;;;;18.20;39.61;100918.88;5052961;28;20400;-76
2021/12/20 06:22:35;;;;;;;6.22;5.00;;;;;;;18.20;39.65;100909.97;5053838;28;20060;-76
2021/12/20 06:25:03;;;;;;;6.50;5.53;;;;;;;18.21;39.61;100915.22;5052915;28;20056;-74
2021/12/20 06:27:31;;;;;;;8.02;6.00;;;;;;;18.22;39.52;100908.03;5051922;28;20421;-74
2021/12/20 06:29:58;;;;;;;7.72;6.15;;;;;;;18.22;39.45;100911.53;5053226;28;20041;-74
2021/12/20 06:32:26;;;;;;;7.50;5.78;;;;;;;18.23;39.36;100917.75;5052032;28;20511;-74
2021/12/20 06:34:53;;;;;;;6.57;5.65;;;;;;;18.23;39.30;100910.59;5053252;28;20056;-75
2021/12/20 06:37:21;;;;;;;6.68;5.70;;;;;;;18.24;39.26;100914.13;5052032;28;20052;-75
2021/12/20 06:39:48;;;;;;;8.10;5.57;;;;;;;18.24;39.04;100917.66;5052755;28;20041;-76
2021/12/20 06:42:22;;;;;;;6.70;5.60;;;;;;;18.25;39.12;100932.75;5051685;28;20064;-75
2021/12/20 06:44:50;;;;;;;6.40;5.80;;;;;;;18.25;39.10;100935.44;5068764;28;20053;-75
2021/12/20 06:47:20;;;;;;;7.05;5.57;;;;;;;18.25;39.00;100923.84;5052907;28;20377;-75
2021/12/20 06:49:47;;;;;;;6.35;5.75;;;;;;;18.25;39.11;100926.53;5053753;28;20037;-76
2021/12/20 06:52:15;;;;;;;6.32;5.72;;;;;;;18.25;39.04;100930.06;5056231;28;20052;-75
2021/12/20 06:54:42;;;;;;;7.05;5.70;;;;;;;18.26;38.98;100931.75;5056956;28;20045;-75
2021/12/20 06:57:10;;;;;;;5.97;5.38;;;;;;;18.26;39.13;100942.47;5057232;28;20618;-75
2021/12/20 06:59:37;;;;;;;8.35;5.90;;;;;;;18.26;38.99;100944.31;5057147;28;20036;-75
2021/12/20 07:02:04;;;;;;;7.40;5.60;;;;;;;18.27;39.09;100948.69;5056720;28;20052;-75
2021/12/20 07:04:32;;;;;;;6.07;5.47;;;;;;;18.27;39.11;100946.00;5056492;28;20036;-75
2021/12/20 07:06:59;;;;;;;7.47;5.93;;;;;;;18.27;39.06;100948.69;5055408;28;20056;-75
2021/12/20 07:09:27;;;;;;;7.30;6.03;;;;;;;18.27;39.05;100941.53;5057236;28;20512;-75
2021/12/20 07:11:54;;;;;;;6.90;4.97;;;;;;;18.27;39.04;100936.16;5056770;28;20045;-75
2021/12/20 07:14:26;;;;;;;7.20;6.07;;;;;;;18.27;39.07;100946.88;5056681;28;20044;-76
2021/12/20 07:16:54;;;;;;;10.68;5.30;;;;;;;18.26;39.21;100942.47;5056961;28;20051;-75
2021/12/20 07:19:23;;;;;;;7.47;5.88;;;;;;;18.26;39.06;100947.84;5056495;28;20056;-75
2021/12/20 07:21:50;;;;;;;7.75;5.95;;;;;;;18.26;39.17;100955.88;5056635;28;20053;-75
2021/12/20 07:24:17;;;;;;;7.10;6.40;;;;;;;18.26;39.48;100953.19;5056512;28;20048;-75
2021/12/20 07:26:45;;;;;;;6.07;5.18;;;;;;;18.26;39.41;100949.66;5057017;28;20047;-75
2021/12/20 07:29:12;;;;;;;6.40;5.72;;;;;;;18.26;39.28;100957.72;5056677;28;20049;-75
2021/12/20 07:31:40;;;;;;;8.75;6.80;;;;;;;18.25;39.31;100954.19;5056326;28;20199;-75
2021/12/20 07:34:10;;;;;;;6.72;5.97;;;;;;;18.26;39.34;100966.59;5056624;28;20048;-75
2021/12/20 07:36:37;;;;;;;7.05;6.20;;;;;;;18.25;39.53;100947.97;5056685;28;20060;-75
2021/12/20 07:39:06;;;;;;;7.80;6.60;;;;;;;18.25;39.49;100953.34;5056834;28;20056;-75
2021/12/20 07:41:51;;;;;;;8.23;6.43;;;;;;;18.23;39.51;100958.81;5056436;28;20377;-76
2021/12/20 07:44:21;;;;;;;9.00;5.85;;;;;;;18.23;39.93;100958.81;5055204;28;20057;-76
2021/12/20 07:46:50;;;;;;;6.75;5.78;;;;;;;18.21;40.79;100966.13;5056013;28;20484;-76
2021/12/20 07:49:18;;;;;;;7.93;5.68;;;;;;;18.22;41.30;100961.59;5055008;28;20076;-76
2021/12/20 07:51:45;;;;;;;13.27;10.77;;;;;;;18.11;36.79;100970.50;5056513;28;20049;-76
2021/12/20 07:54:13;;;;;;;7.82;7.03;;;;;;;18.06;40.42;100974.50;5088104;28;20048;-75
2021/12/20 07:56:41;;;;;;;9.95;6.70;;;;;;;18.06;40.41;100977.19;5055394;28;20060;-76
2021/12/20 07:59:09;;;;;;;10.50;6.90;;;;;;;18.06;40.14;100991.44;5054066;28;20664;-76
2021/12/20 08:01:36;;;;;;;10.15;8.80;;;;;;;18.05;38.49;100989.72;5087281;28;20052;-77
2021/12/20 08:04:06;;;;;;;12.73;10.00;;;;;;;18.02;37.56;100982.78;5055260;28;20045;-76
2021/12/20 08:06:35;;;;;;;12.77;10.48;;;;;;;18.00;37.21;100998.13;5071144;28;20396;-75
2021/12/20 08:09:04;;;;;;;16.55;13.35;;;;;;;17.97;36.13;100995.69;5055580;28;20041;-75
2021/12/20 08:11:33;;;;;;;16.05;13.40;;;;;;;17.95;35.41;101011.03;5054252;28;20045;-75
2021/12/20 08:14:00;;;;;;;16.05;12.20;;;;;;;17.94;36.14;101011.13;5053464;28;20049;-76
2021/12/20 08:16:28;;;;;;;16.83;15.02;;;;;;;17.92;35.23;101008.59;5053726;28;20049;-76
2021/12/20 08:18:56;;;;;;;16.95;15.20;;;;;;;17.91;34.69;101008.72;5055040;28;20493;-76
2021/12/20 08:21:23;;;;;;;19.15;15.85;;;;;;;17.90;34.52;101015.88;5053904;28;20049;-76
2021/12/20 08:23:51;;;;;;;19.95;15.38;;;;;;;17.88;33.92;101025.00;5054088;28;20060;-76
2021/12/20 08:26:19;;;;;;;18.00;15.98;;;;;;;17.84;33.75;101024.41;5055163;28;20428;-76
2021/12/20 08:28:46;;;;;;;19.08;15.05;;;;;;;17.83;34.73;101030.72;5053596;28;20053;-77
2021/12/20 08:31:14;;;;;;;18.48;14.65;;;;;;;17.83;35.17;101046.78;5053452;28;20528;-75
2021/12/20 08:33:41;;;;;;;16.50;13.80;;;;;;;17.84;36.41;101058.34;5055677;28;20049;-77
2021/12/20 08:36:12;;;;;;;16.75;14.30;;;;;;;17.85;36.67;101058.22;5055366;28;20045;-77
2021/12/20 08:45:47;;;;;;;20.95;13.07;;;;;;;17.88;37.35;101068.72;5111727;27;20372;-75
2021/12/20 08:48:16;;;;;;;16.58;14.82;;;;;;;17.90;37.20;101079.31;5092742;28;20107;-75
2021/12/20 08:50:43;;;;;;;16.02;13.90;;;;;;;17.91;37.60;101083.72;5083851;28;20062;-75
2021/12/20 08:53:15;;;;;;;18.58;15.07;;;;;;;17.91;37.78;101092.59;5092282;28;20059;-76
2021/12/20 08:55:42;;;;;;;19.50;14.05;;;;;;;17.94;37.89;101102.22;5110589;28;20390;-75
2021/12/20 08:58:10;;;;;;;34.00;13.75;;;;;;;17.93;38.04;101109.38;5110777;28;20039;-77
2021/12/20 09:00:37;;;;;;;16.85;12.73;;;;;;;17.96;38.15;101113.69;5110477;28;20044;-75
2021/12/20 09:03:05;;;;;;;14.93;13.30;;;;;;;17.97;38.14;101118.06;5110801;28;20054;-75
2021/12/20 09:05:34;;;;;;;14.00;12.60;;;;;;;17.98;38.39;101119.75;5092462;28;20043;-75
2021/12/20 09:08:06;;;;;;;14.05;12.55;;;;;;;17.99;38.36;101121.50;5092487;28;20047;-74
2021/12/20 09:10:34;;;;;;;14.02;12.50;;;;;;;18.00;38.67;101134.75;5110524;28;20047;-75
2021/12/20 09:13:03;;;;;;;16.45;12.32;;;;;;;18.00;38.68;101142.78;5092105;28;20059;-75
2021/12/20 09:15:32;;;;;;;13.70;12.30;;;;;;;18.00;38.78;101150.81;5111586;28;20043;-75
2021/12/20 09:18:00;;;;;;;12.23;10.95;;;;;;;18.01;38.88;101149.00;5110682;28;20048;-75
2021/12/20 09:20:29;;;;;;;17.02;11.40;;;;;;;18.01;38.98;101157.03;5110507;28;20051;-76
2021/12/20 09:23:07;;;;;;;15.70;12.00;;;;;;;18.01;39.21;101168.59;5110454;28;20055;-78
2021/12/20 09:25:38;;;;;;;13.65;11.95;;;;;;;18.02;39.01;101169.44;5092195;28;20047;-75
2021/12/20 09:28:10;;;;;;;18.05;11.90;;;;;;;18.03;39.20;101171.19;5110361;28;20048;-76
2021/12/20 09:30:39;;;;;;;14.75;12.07;;;;;;;18.04;39.15;101180.94;5091767;28;20052;-76
2021/12/20 09:33:06;;;;;;;12.88;11.60;;;;;;;18.03;39.14;101187.25;5110214;28;20055;-75
2021/12/20 09:35:34;;;;;;;14.90;12.23;;;;;;;18.04;39.29;101195.16;5106276;28;20471;-75
2021/12/20 09:38:06;;;;;;;14.00;12.50;;;;;;;18.04;39.28;101195.16;5110111;28;20044;-75
2021/12/20 09:40:39;;;;;;;12.65;11.32;;;;;;;18.04;38.88;101197.00;5087641;28;20052;-75
2021/12/20 09:43:11;;;;;;;18.88;11.95;;;;;;;18.04;39.08;101200.53;5089851;28;20370;-76
2021/12/20 09:45:42;;;;;;;13.23;11.82;;;;;;;18.04;39.32;101200.53;5089710;28;20056;-76
2021/12/20 09:48:10;;;;;;;14.45;11.25;;;;;;;18.05;39.41;101204.06;5070879;28;20056;-75
2021/12/20 09:50:38;;;;;;;14.32;12.82;;;;;;;18.05;39.46;101212.09;5071566;28;20045;-76
2021/12/20 09:53:07;;;;;;;13.95;11.35;;;;;;;18.06;39.43;101212.94;5089296;28;20056;-76
2021/12/20 09:55:35;;;;;;;13.07;11.77;;;;;;;18.05;39.45;101217.44;5066991;28;20033;-76
2021/12/20 09:58:05;;;;;;;15.23;12.32;;;;;;;18.05;39.39;101220.13;5076038;28;20051;-77
2021/12/20 10:00:33;;;;;;;14.10;12.65;;;;;;;18.05;39.56;101220.13;5076225;28;20059;-75
2021/12/20 10:03:00;;;;;;;13.95;12.48;;;;;;;18.05;39.39;101222.81;5076116;28;20049;-75
2021/12/20 10:05:28;;;;;;;13.77;12.30;;;;;;;18.04;39.57;101221.97;5075834;28;20044;-76
2021/12/20 10:07:58;;;;;;;15.38;11.63;;;;;;;18.04;39.55;101226.47;5076378;28;20399;-76
2021/12/20 10:10:46;;;;;;;13.52;12.13;;;;;;;18.06;39.61;101218.31;5075715;28;20045;-77
2021/12/20 10:13:25;;;;;;;14.85;12.90;;;;;;;18.06;39.59;101226.34;5075479;28;20036;-76
2021/12/20 10:15:54;;;;;;;14.00;12.13;;;;;;;18.06;39.50;101224.50;5051102;28;20048;-76
2021/12/20 10:18:21;;;;;;;13.60;11.88;;;;;;;18.08;39.63;101227.94;5055847;28;20049;-77
2021/12/20 10:20:57;;;;;;;14.02;12.52;;;;;;;18.11;39.61;101241.13;5055724;28;20395;-76
2021/12/20 10:23:32;;;;;;;18.27;12.15;;;;;;;18.13;40.33;101233.81;5054474;28;20503;-76
2021/12/20 10:26:12;;;;;;;13.35;11.98;;;;;;;18.12;40.70;101234.78;5055793;28;20041;-76
2021/12/20 10:28:42;;;;;;;13.07;11.75;;;;;;;18.13;41.16;101244.53;5038318;28;20049;-76
2021/12/20 10:31:17;;;;;;;13.50;12.10;;;;;;;18.12;41.52;101253.53;5055432;28;20188;-76
2021/12/20 10:33:59;;;;;;;13.35;11.95;;;;;;;18.11;41.64;101254.53;5055589;28;20045;-76
2021/12/20 10:36:32;;;;;;;12.07;10.90;;;;;;;18.10;41.91;101258.16;5055058;28;20045;-76
2021/12/20 10:39:01;;;;;;;14.93;11.73;;;;;;;18.10;42.30;101258.16;5055293;28;20048;-77
2021/12/20 10:41:39;;;;;;;18.48;12.57;;;;;;;18.09;42.16;101256.44;5037526;28;20514;-79
2021/12/20 10:44:18;;;;;;;11.63;10.52;;;;;;;18.10;42.39;101265.34;5037643;28;20135;-80
2021/12/20 10:46:51;;;;;;;12.40;10.98;;;;;;;18.10;42.19;101265.34;5037395;28;20048;-77
2021/12/20 10:49:25;;;;;;;12.57;10.85;;;;;;;18.10;42.50;101270.69;5054044;28;20052;-77
2021/12/20 10:51:56;;;;;;;12.30;11.05;;;;;;;18.09;42.73;101267.16;5054999;28;20058;-77
2021/12/20 10:54:30;;;;;;;13.05;10.40;;;;;;;18.09;42.80;101267.16;5037033;28;20053;-76
2021/12/20 10:57:05;;;;;;;11.68;10.57;;;;;;;18.07;43.11;101254.84;5055219;28;20056;-76
2021/12/20 10:59:36;;;;;;;12.20;10.27;;;;;;;18.07;43.15;101257.50;5055208;28;20049;-77
2021/12/20 11:04:52;;;;;;;11.48;10.38;;;;;;;18.08;43.24;101264.59;5054715;28;20491;-76
2021/12/20 11:09:52;;;;;;;11.27;10.05;;;;;;;18.05;43.17;101252.28;5054792;28;20048;-77
2021/12/20 11:12:23;;;;;;;11.93;10.82;;;;;;;18.05;43.25;101257.63;5053434;28;20049;-77
2021/12/20 11:14:57;;;;;;;11.35;10.35;;;;;;;18.04;43.11;101258.63;5056265;28;20045;-77
2021/12/20 11:17:24;;;;;;;10.68;9.60;;;;;;;18.04;43.64;101253.25;5074601;28;20044;-78
2021/12/20 11:19:55;;;;;;;13.50;10.20;;;;;;;18.03;43.56;101252.41;5074576;28;20399;-78
2021/12/20 11:22:25;;;;;;;10.60;9.60;;;;;;;18.05;43.85;101249.59;5074654;28;20053;-77
2021/12/20 11:24:55;;;;;;;10.73;9.73;;;;;;;18.03;44.41;101252.41;5074464;28;20047;-79
2021/12/20 11:27:34;;;;;;;10.98;9.77;;;;;;;18.04;44.31;101258.63;5074642;28;20385;-80
2021/12/20 11:30:08;;;;;;;11.60;10.40;;;;;;;18.04;44.36;101261.28;5074492;28;20048;-78
2021/12/20 11:32:35;;;;;;;13.73;10.45;;;;;;;18.02;44.14;101260.53;5056890;28;20364;-79
2021/12/20 11:35:04;;;;;;;12.35;10.68;;;;;;;18.02;43.78;101261.38;5074285;28;20044;-78
2021/12/20 11:37:32;;;;;;;10.32;9.35;;;;;;;18.01;44.10;101256.16;5074421;28;20048;-78
2021/12/20 11:40:03;;;;;;;10.00;9.00;;;;;;;18.01;44.01;101250.78;5074372;28;20048;-77
2021/12/20 11:42:30;;;;;;;11.85;10.75;;;;;;;17.99;44.30;101250.06;5074318;28;20386;-80
2021/12/20 11:45:04;;;;;;;10.52;9.57;;;;;;;18.00;43.96;101257.97;5056266;28;20731;-78
2021/12/20 11:48:02;;;;;;;10.85;9.85;;;;;;;18.00;44.35;101257.97;5056558;28;20048;-78
2021/12/20 11:50:38;;;;;;;11.48;10.38;;;;;;;18.01;43.95;101270.41;5067977;28;20060;-78
2021/12/20 11:53:14;;;;;;;11.38;10.20;;;;;;;18.01;43.80;101269.56;5057072;28;20059;-78
2021/12/20 11:55:47;;;;;;;12.05;10.95;;;;;;;18.00;43.61;101267.84;5074070;28;20047;-78
2021/12/20 11:58:18;;;;;;;11.50;10.30;;;;;;;18.00;43.61;101267.84;5074050;28;20490;-83
2021/12/20 12:00:52;;;;;;;11.00;9.95;;;;;;;18.00;43.59;101257.13;5056141;28;20510;-79